createdAt,value
2023-04-08T00:01:15.034Z,50.40
2023-04-08T00:03:41.957Z,50.60
2023-04-08T00:06:08.739Z,50.50
2023-04-08T00:08:35.515Z,50.60
2023-04-08T00:11:02.246Z,50.30
2023-04-08T00:13:29.206Z,50.30
2023-04-08T00:15:55.930Z,50.10
2023-04-08T00:18:22.645Z,49.90
2023-04-08T00:20:49.412Z,49.70
2023-04-08T00:23:16.124Z,50.10
2023-04-08T00:25:42.954Z,50.00
2023-04-08T00:28:09.668Z,50.00
2023-04-08T00:30:36.546Z,50.30
2023-04-08T00:33:03.528Z,50.20
2023-04-08T00:35:30.338Z,50.90
2023-04-08T00:37:57.046Z,50.00
2023-04-08T00:40:23.784Z,49.80
2023-04-08T00:42:50.612Z,50.00
2023-04-08T00:45:17.415Z,49.90
2023-04-08T00:47:44.230Z,50.10
2023-04-08T00:50:11.367Z,50.10
2023-04-08T00:52:38.230Z,49.70
2023-04-08T00:55:05.706Z,49.90
2023-04-08T00:57:32.629Z,49.90
2023-04-08T01:00:00.392Z,49.80
2023-04-08T01:02:44.635Z,50.10
2023-04-08T01:05:33.534Z,49.80
2023-04-08T01:08:02.821Z,50.00
2023-04-08T01:10:33.398Z,50.10
2023-04-08T01:13:03.759Z,50.00
2023-04-08T01:15:32.174Z,50.30
2023-04-08T01:18:00.706Z,50.50
2023-04-08T01:20:29.380Z,50.40
2023-04-08T01:23:16.282Z,50.50
2023-04-08T01:25:52.318Z,50.60
2023-04-08T01:28:21.197Z,50.60
2023-04-08T01:30:50.009Z,50.60
2023-04-08T01:33:19.057Z,50.60
2023-04-08T01:35:46.308Z,50.60
2023-04-08T01:38:17.074Z,50.50
2023-04-08T01:40:45.224Z,50.70
2023-04-08T01:43:14.868Z,50.70
2023-04-08T01:45:45.744Z,50.60
2023-04-08T01:48:14.735Z,50.50
2023-04-08T01:50:45.908Z,50.80
2023-04-08T01:53:12.961Z,50.60
2023-04-08T01:55:41.885Z,50.60
2023-04-08T01:58:11.973Z,50.50
2023-04-08T02:00:41.031Z,50.50
2023-04-08T02:03:11.186Z,50.70
2023-04-08T02:05:39.161Z,50.60
2023-04-08T02:08:06.002Z,50.70
2023-04-08T02:10:32.760Z,50.60
2023-04-08T02:12:59.659Z,50.90
2023-04-08T02:15:28.966Z,50.50
2023-04-08T02:17:58.727Z,50.70
2023-04-08T02:20:37.996Z,50.50
2023-04-08T02:23:27.542Z,50.90
2023-04-08T02:25:56.749Z,51.00
2023-04-08T02:28:26.315Z,51.00
2023-04-08T02:30:53.715Z,51.00
2023-04-08T02:33:23.113Z,51.10
2023-04-08T02:35:54.860Z,50.90
2023-04-08T02:38:23.823Z,51.20
2023-04-08T02:40:51.366Z,51.10
2023-04-08T02:43:18.251Z,51.00
2023-04-08T02:45:45.602Z,50.80
2023-04-08T02:48:12.582Z,51.00
2023-04-08T02:50:40.671Z,50.90
2023-04-08T02:53:10.441Z,51.10
2023-04-08T02:55:37.889Z,50.80
2023-04-08T02:58:04.835Z,51.00
2023-04-08T03:00:31.792Z,50.80
2023-04-08T03:02:58.690Z,50.90
2023-04-08T03:05:26.651Z,50.90
2023-04-08T03:07:53.510Z,51.10
2023-04-08T03:10:20.513Z,50.90
2023-04-08T03:12:47.447Z,51.10
2023-04-08T03:15:14.227Z,51.00
2023-04-08T03:17:41.360Z,51.00
2023-04-08T03:20:08.837Z,51.00
2023-04-08T03:22:36.449Z,50.70
2023-04-08T03:25:03.400Z,50.70
2023-04-08T03:27:30.174Z,50.90
2023-04-08T03:29:58.120Z,50.50
2023-04-08T03:32:25.266Z,50.60
2023-04-08T03:34:52.168Z,50.70
2023-04-08T03:37:19.266Z,50.80
2023-04-08T03:39:46.514Z,50.40
2023-04-08T03:42:13.328Z,50.50
2023-04-08T03:44:40.279Z,50.70
2023-04-08T03:47:06.993Z,51.30
2023-04-08T03:49:33.959Z,51.00
2023-04-08T03:52:00.625Z,51.80
2023-04-08T03:54:27.456Z,50.90
2023-04-08T03:56:54.189Z,50.90
2023-04-08T03:59:21.124Z,51.00
2023-04-08T04:01:47.947Z,51.00
2023-04-08T04:04:15.067Z,51.70
2023-04-08T04:06:41.938Z,51.70
2023-04-08T04:09:08.785Z,50.80
2023-04-08T04:11:35.938Z,51.00
2023-04-08T04:14:02.994Z,51.60
2023-04-08T04:16:32.253Z,51.60
2023-04-08T04:18:59.809Z,50.90
2023-04-08T04:21:27.263Z,52.00
2023-04-08T04:23:54.147Z,52.10
2023-04-08T04:26:21.113Z,52.00
2023-04-08T04:28:48.005Z,51.60
2023-04-08T04:31:20.178Z,52.50
2023-04-08T04:33:47.548Z,51.60
2023-04-08T04:36:15.324Z,52.50
2023-04-08T04:38:43.006Z,52.20
2023-04-08T04:41:09.964Z,52.10
2023-04-08T04:43:37.016Z,51.40
2023-04-08T04:46:06.984Z,51.90
2023-04-08T04:48:34.373Z,51.80
2023-04-08T04:51:03.122Z,51.60
2023-04-08T04:53:30.748Z,51.00
2023-04-08T04:55:57.476Z,51.40
2023-04-08T04:58:24.254Z,51.20
2023-04-08T05:00:51.190Z,51.70
2023-04-08T05:03:18.157Z,51.30
2023-04-08T05:05:44.982Z,51.80
2023-04-08T05:08:11.751Z,52.10
2023-04-08T05:10:41.258Z,52.00
2023-04-08T05:13:08.086Z,52.10
2023-04-08T05:15:35.067Z,52.10
2023-04-08T05:18:03.194Z,52.30
2023-04-08T05:20:31.738Z,51.90
2023-04-08T05:22:58.552Z,52.20
2023-04-08T05:25:25.303Z,52.30
2023-04-08T05:27:52.764Z,52.10
2023-04-08T05:30:19.513Z,52.00
2023-04-08T05:32:46.370Z,52.00
2023-04-08T05:35:13.150Z,52.10
2023-04-08T05:37:39.968Z,51.80
2023-04-08T05:40:07.575Z,51.60
2023-04-08T05:42:34.345Z,51.70
2023-04-08T05:45:01.142Z,51.80
2023-04-08T05:47:27.849Z,51.30
2023-04-08T05:49:54.585Z,51.60
2023-04-08T05:52:21.430Z,52.20
2023-04-08T05:54:48.215Z,52.30
2023-04-08T05:57:16.659Z,51.30
2023-04-08T05:59:43.420Z,52.10
2023-04-08T06:02:10.341Z,52.30
2023-04-08T06:04:37.220Z,51.40
2023-04-08T06:07:05.418Z,51.00
2023-04-08T06:09:36.679Z,51.70
2023-04-08T06:12:03.776Z,51.00
2023-04-08T06:14:30.542Z,51.60
2023-04-08T06:16:57.764Z,51.50
2023-04-08T06:19:24.905Z,50.80
2023-04-08T06:21:51.759Z,52.00
2023-04-08T06:24:18.413Z,51.60
2023-04-08T06:26:45.204Z,52.30
2023-04-08T06:29:11.951Z,51.70
2023-04-08T06:31:38.651Z,52.20
2023-04-08T06:34:05.346Z,52.20
2023-04-08T06:36:32.217Z,52.30
2023-04-08T06:38:58.967Z,51.30
2023-04-08T06:41:26.086Z,51.60
2023-04-08T06:43:52.766Z,51.30
2023-04-08T06:46:19.588Z,51.50
2023-04-08T06:48:46.401Z,51.90
2023-04-08T06:51:13.210Z,51.80
2023-04-08T06:53:39.942Z,51.60
2023-04-08T06:56:06.983Z,51.60
2023-04-08T06:58:33.678Z,52.10
2023-04-08T07:01:01.630Z,51.50
2023-04-08T07:03:28.593Z,52.00
2023-04-08T07:05:55.593Z,51.70
2023-04-08T07:08:22.505Z,52.40
2023-04-08T07:10:49.280Z,51.40
2023-04-08T07:13:17.496Z,51.90
2023-04-08T07:15:44.326Z,51.90
2023-04-08T07:18:12.257Z,52.80
2023-04-08T07:20:39.012Z,52.60
2023-04-08T07:23:05.897Z,53.40
2023-04-08T07:25:35.307Z,53.90
2023-04-08T07:28:02.344Z,53.90
2023-04-08T07:30:29.222Z,54.20
2023-04-08T07:32:59.341Z,54.00
2023-04-08T07:35:28.379Z,54.50
2023-04-08T07:37:55.460Z,53.90
2023-04-08T07:40:22.411Z,53.70
2023-04-08T07:42:49.256Z,53.30
2023-04-08T07:45:16.118Z,53.30
2023-04-08T07:47:43.841Z,53.50
2023-04-08T07:50:11.092Z,53.90
2023-04-08T07:52:37.771Z,53.20
2023-04-08T07:55:05.887Z,53.40
2023-04-08T07:57:32.979Z,53.30
2023-04-08T07:59:59.830Z,53.30
2023-04-08T08:02:26.830Z,53.60
2023-04-08T08:04:53.768Z,53.70
2023-04-08T08:07:20.594Z,53.40
2023-04-08T08:09:47.314Z,53.30
2023-04-08T08:12:14.025Z,54.00
2023-04-08T08:14:40.797Z,53.20
2023-04-08T08:17:07.764Z,53.50
2023-04-08T08:19:34.467Z,53.40
2023-04-08T08:22:01.449Z,53.20
2023-04-08T08:24:28.247Z,52.70
2023-04-08T08:26:55.538Z,52.80
2023-04-08T08:29:22.219Z,52.40
2023-04-08T08:31:49.242Z,52.10
2023-04-08T08:34:16.523Z,52.10
2023-04-08T08:36:43.469Z,51.70
2023-04-08T08:39:10.264Z,51.30
2023-04-08T08:41:37.795Z,51.10
2023-04-08T08:44:08.613Z,51.10
2023-04-08T08:46:35.985Z,51.00
2023-04-08T08:49:02.891Z,51.00
2023-04-08T08:51:32.684Z,51.00
2023-04-08T08:54:02.941Z,50.80
2023-04-08T08:56:29.862Z,50.60
2023-04-08T08:58:56.603Z,50.40
2023-04-08T09:01:34.436Z,50.20
2023-04-08T09:04:10.726Z,50.30
2023-04-08T09:06:38.645Z,50.70
2023-04-08T09:09:10.172Z,50.80
2023-04-08T09:11:42.064Z,50.80
2023-04-08T09:14:25.639Z,50.40
2023-04-08T09:16:53.442Z,49.90
2023-04-08T09:19:20.725Z,50.20
2023-04-08T09:22:05.810Z,49.80
2023-04-08T09:24:32.676Z,49.60
2023-04-08T09:26:59.841Z,49.70
2023-04-08T09:29:31.239Z,49.10
2023-04-08T09:32:00.463Z,48.70
2023-04-08T09:34:29.576Z,48.60
2023-04-08T09:36:56.707Z,48.60
2023-04-08T09:39:23.969Z,48.50
2023-04-08T09:41:52.409Z,48.60
2023-04-08T09:44:21.491Z,48.80
2023-04-08T09:46:52.847Z,48.70
2023-04-08T09:49:26.782Z,48.80
2023-04-08T09:52:00.922Z,48.40
2023-04-08T09:54:40.654Z,48.60
2023-04-08T09:57:13.736Z,48.60
2023-04-08T09:59:49.675Z,48.80
2023-04-08T10:02:24.496Z,48.50
2023-04-08T10:04:54.065Z,48.50
2023-04-08T10:07:21.008Z,48.60
2023-04-08T10:09:47.923Z,48.10
2023-04-08T10:12:15.033Z,47.80
2023-04-08T10:14:41.805Z,47.60
2023-04-08T10:17:28.618Z,47.40
2023-04-08T10:19:55.708Z,47.20
2023-04-08T10:22:34.492Z,47.40
2023-04-08T10:25:18.965Z,47.10
2023-04-08T10:27:46.139Z,47.00
2023-04-08T10:30:51.528Z,47.00
2023-04-08T10:33:22.480Z,46.70
2023-04-08T10:35:53.354Z,46.40
2023-04-08T10:38:20.877Z,46.30
2023-04-08T10:40:48.884Z,46.70
2023-04-08T10:43:16.148Z,46.20
2023-04-08T10:45:45.776Z,46.40
2023-04-08T10:48:26.424Z,46.70
2023-04-08T10:50:58.343Z,47.00
2023-04-08T10:53:29.706Z,46.70
2023-04-08T10:56:07.310Z,46.90
2023-04-08T10:58:36.320Z,46.70
2023-04-08T11:01:07.621Z,46.40
2023-04-08T11:03:37.108Z,46.40
2023-04-08T11:06:04.724Z,46.40
2023-04-08T11:08:32.966Z,46.00
2023-04-08T11:11:04.190Z,45.80
2023-04-08T11:13:31.883Z,46.20
2023-04-08T11:16:00.234Z,45.90
2023-04-08T11:18:27.392Z,45.90
2023-04-08T11:20:54.737Z,46.30
2023-04-08T11:23:22.911Z,46.50
2023-04-08T11:25:50.819Z,46.00
2023-04-08T11:28:18.959Z,45.80
2023-04-08T11:30:45.865Z,45.40
2023-04-08T11:33:13.936Z,45.40
2023-04-08T11:35:41.857Z,45.60
2023-04-08T11:38:10.017Z,45.60
2023-04-08T11:40:37.275Z,45.70
2023-04-08T11:43:11.295Z,45.90
2023-04-08T11:45:40.297Z,45.40
2023-04-08T11:48:15.533Z,46.00
2023-04-08T11:50:43.744Z,46.20
2023-04-08T11:53:20.999Z,46.00
2023-04-08T11:55:48.899Z,45.80
2023-04-08T11:58:15.960Z,45.90
2023-04-08T12:00:43.728Z,46.20
2023-04-08T12:03:11.444Z,45.70
2023-04-08T12:05:38.419Z,46.20
2023-04-08T12:08:05.419Z,46.20
2023-04-08T12:10:32.579Z,46.10
2023-04-08T12:12:59.269Z,46.00
2023-04-08T12:15:26.123Z,46.00
2023-04-08T12:17:53.000Z,45.90
2023-04-08T12:20:19.940Z,45.90
2023-04-08T12:22:46.907Z,45.80
2023-04-08T12:25:13.736Z,45.70
2023-04-08T12:27:40.572Z,45.40
2023-04-08T12:30:07.993Z,45.20
2023-04-08T12:32:34.787Z,45.40
2023-04-08T12:35:01.662Z,45.70
2023-04-08T12:37:28.714Z,46.10
2023-04-08T12:39:55.532Z,45.90
2023-04-08T12:42:22.281Z,45.90
2023-04-08T12:44:48.978Z,45.60
2023-04-08T12:47:15.932Z,45.80
2023-04-08T12:49:49.217Z,45.60
2023-04-08T12:52:17.437Z,45.40
2023-04-08T12:54:44.787Z,45.50
2023-04-08T12:57:11.806Z,45.70
2023-04-08T12:59:39.994Z,45.90
2023-04-08T13:02:07.962Z,45.80
2023-04-08T13:04:35.135Z,45.90
2023-04-08T13:07:02.316Z,45.90
2023-04-08T13:09:30.581Z,46.00
2023-04-08T13:11:58.362Z,46.00
2023-04-08T13:14:25.585Z,46.00
2023-04-08T13:16:52.578Z,45.60
2023-04-08T13:19:19.327Z,45.60
2023-04-08T13:21:46.458Z,45.70
2023-04-08T13:24:13.331Z,46.10
2023-04-08T13:26:40.472Z,45.90
2023-04-08T13:29:07.283Z,46.10
2023-04-08T13:31:34.235Z,46.00
2023-04-08T13:34:01.118Z,45.90
2023-04-08T13:36:29.003Z,45.70
2023-04-08T13:38:56.559Z,45.90
2023-04-08T13:41:23.436Z,45.70
2023-04-08T13:43:50.568Z,45.80
2023-04-08T13:46:18.450Z,46.10
2023-04-08T13:48:45.984Z,45.90
2023-04-08T13:51:12.717Z,46.00
2023-04-08T13:53:39.381Z,46.10
2023-04-08T13:56:06.406Z,45.80
2023-04-08T13:58:33.144Z,45.60
2023-04-08T14:00:59.946Z,45.60
2023-04-08T14:03:27.919Z,46.00
2023-04-08T14:05:54.836Z,45.20
2023-04-08T14:08:25.413Z,45.10
2023-04-08T14:10:53.623Z,45.50
2023-04-08T14:13:20.924Z,45.60
2023-04-08T14:15:48.151Z,45.40
2023-04-08T14:18:17.543Z,45.50
2023-04-08T14:20:44.621Z,45.50
2023-04-08T14:23:13.411Z,45.30
2023-04-08T14:25:40.787Z,45.70
2023-04-08T14:28:08.114Z,45.60
2023-04-08T14:30:36.177Z,45.80
2023-04-08T14:33:04.711Z,45.70
2023-04-08T14:35:31.578Z,45.90
2023-04-08T14:37:58.701Z,46.00
2023-04-08T14:40:25.445Z,45.90
2023-04-08T14:42:52.293Z,45.90
2023-04-08T14:45:19.240Z,45.50
2023-04-08T14:47:46.189Z,45.50
2023-04-08T14:50:13.080Z,45.50
2023-04-08T14:52:39.808Z,45.30
2023-04-08T14:55:07.083Z,45.50
2023-04-08T14:57:33.970Z,45.40
2023-04-08T15:00:00.806Z,45.50
2023-04-08T15:02:27.655Z,45.40
2023-04-08T15:04:54.379Z,45.40
2023-04-08T15:07:21.140Z,45.20
2023-04-08T15:09:47.925Z,45.10
2023-04-08T15:12:14.638Z,45.30
2023-04-08T15:14:41.370Z,45.30
2023-04-08T15:17:08.670Z,45.20
2023-04-08T15:19:35.674Z,45.40
2023-04-08T15:22:02.411Z,45.70
2023-04-08T15:24:29.112Z,45.60
2023-04-08T15:26:56.579Z,45.40
2023-04-08T15:29:24.538Z,45.20
2023-04-08T15:31:51.283Z,45.40
2023-04-08T15:34:18.165Z,45.10
2023-04-08T15:36:45.359Z,45.30
2023-04-08T15:39:12.280Z,45.30
2023-04-08T15:41:39.002Z,45.50
2023-04-08T15:44:05.820Z,45.70
2023-04-08T15:46:33.289Z,45.50
2023-04-08T15:49:01.535Z,45.50
2023-04-08T15:51:28.686Z,45.70
2023-04-08T15:53:55.468Z,46.00
2023-04-08T15:56:22.510Z,45.40
2023-04-08T15:58:49.503Z,45.40
2023-04-08T16:01:18.758Z,45.60
2023-04-08T16:03:46.173Z,45.80
2023-04-08T16:06:12.992Z,45.80
2023-04-08T16:08:40.488Z,45.50
2023-04-08T16:11:08.142Z,45.20
2023-04-08T16:13:35.247Z,45.60
2023-04-08T16:16:03.055Z,45.40
2023-04-08T16:18:30.298Z,45.30
2023-04-08T16:20:57.271Z,45.40
2023-04-08T16:23:24.370Z,45.10
2023-04-08T16:25:52.003Z,45.10
2023-04-08T16:28:19.023Z,45.10
2023-04-08T16:30:47.836Z,45.20
2023-04-08T16:33:14.888Z,45.30
2023-04-08T16:35:41.688Z,45.20
2023-04-08T16:38:09.384Z,45.90
2023-04-08T16:40:36.126Z,45.10
2023-04-08T16:43:04.261Z,45.20
2023-04-08T16:45:32.630Z,45.40
2023-04-08T16:48:00.401Z,45.20
2023-04-08T16:50:28.582Z,45.40
2023-04-08T16:52:55.429Z,45.30
2023-04-08T16:55:22.238Z,45.30
2023-04-08T16:57:49.072Z,45.40
2023-04-08T17:00:18.009Z,45.70
2023-04-08T17:02:47.340Z,45.40
2023-04-08T17:05:14.500Z,45.60
2023-04-08T17:07:41.743Z,45.50
2023-04-08T17:10:09.111Z,45.50
2023-04-08T17:12:36.181Z,45.70
2023-04-08T17:15:03.409Z,45.80
2023-04-08T17:17:30.423Z,46.00
2023-04-08T17:19:57.286Z,46.00
2023-04-08T17:22:24.065Z,46.30
2023-04-08T17:24:50.843Z,46.40
2023-04-08T17:27:17.628Z,46.20
2023-04-08T17:29:44.467Z,46.30
2023-04-08T17:32:12.499Z,46.50
2023-04-08T17:34:40.739Z,46.10
2023-04-08T17:37:08.097Z,46.60
2023-04-08T17:39:40.578Z,46.30
2023-04-08T17:42:08.240Z,47.20
2023-04-08T17:44:36.330Z,46.40
2023-04-08T17:47:03.692Z,46.50
2023-04-08T17:49:30.829Z,46.50
2023-04-08T17:51:57.727Z,46.50
2023-04-08T17:54:24.996Z,46.70
2023-04-08T17:56:51.785Z,46.50
2023-04-08T17:59:18.490Z,46.50
2023-04-08T18:01:45.619Z,46.60
2023-04-08T18:04:13.483Z,46.50
2023-04-08T18:06:40.543Z,46.50
2023-04-08T18:09:07.211Z,46.80
2023-04-08T18:11:33.907Z,47.00
2023-04-08T18:14:00.594Z,47.10
2023-04-08T18:16:27.375Z,47.00
2023-04-08T18:18:54.161Z,47.10
2023-04-08T18:21:22.060Z,47.00
2023-04-08T18:23:50.443Z,47.00
2023-04-08T18:26:17.590Z,46.90
2023-04-08T18:28:44.566Z,46.50
2023-04-08T18:31:11.405Z,46.60
2023-04-08T18:33:39.181Z,47.00
2023-04-08T18:36:10.249Z,46.40
2023-04-08T18:38:37.429Z,46.50
2023-04-08T18:41:04.711Z,46.30
2023-04-08T18:43:32.121Z,46.60
2023-04-08T18:45:59.578Z,46.40
2023-04-08T18:48:26.620Z,46.40
2023-04-08T18:50:53.447Z,46.80
2023-04-08T18:53:20.270Z,46.70
2023-04-08T18:55:47.030Z,46.40
2023-04-08T18:58:13.992Z,46.50
2023-04-08T19:00:41.537Z,46.40
2023-04-08T19:03:10.302Z,46.50
2023-04-08T19:05:37.808Z,46.30
2023-04-08T19:08:05.089Z,46.60
2023-04-08T19:10:33.394Z,46.90
2023-04-08T19:13:01.417Z,47.00
2023-04-08T19:15:31.494Z,47.00
2023-04-08T19:17:59.017Z,47.20
2023-04-08T19:20:27.387Z,47.00
2023-04-08T19:22:55.624Z,47.00
2023-04-08T19:25:22.392Z,46.80
2023-04-08T19:27:49.075Z,47.20
2023-04-08T19:30:15.980Z,47.00
2023-04-08T19:32:43.187Z,47.20
2023-04-08T19:35:12.295Z,46.80
2023-04-08T19:37:39.101Z,47.10
2023-04-08T19:40:07.600Z,47.00
2023-04-08T19:42:34.372Z,47.00
2023-04-08T19:45:01.245Z,46.80
2023-04-08T19:47:28.196Z,46.80
2023-04-08T19:49:55.232Z,47.10
2023-04-08T19:52:22.127Z,46.90
2023-04-08T19:54:52.287Z,47.00
2023-04-08T19:57:19.849Z,46.60
2023-04-08T19:59:48.564Z,46.70
2023-04-08T20:02:15.510Z,46.80
2023-04-08T20:04:42.584Z,46.80
2023-04-08T20:07:09.505Z,46.50
2023-04-08T20:09:36.261Z,46.60
2023-04-08T20:12:06.366Z,46.50
2023-04-08T20:14:35.764Z,46.40
2023-04-08T20:17:03.201Z,46.70
2023-04-08T20:19:30.522Z,46.60
2023-04-08T20:22:00.079Z,46.30
2023-04-08T20:24:27.844Z,46.60
2023-04-08T20:26:55.172Z,46.40
2023-04-08T20:29:21.936Z,46.30
2023-04-08T20:31:49.732Z,46.30
2023-04-08T20:34:16.563Z,46.30
2023-04-08T20:36:43.627Z,46.30
2023-04-08T20:39:10.987Z,46.20
2023-04-08T20:41:38.399Z,46.30
2023-04-08T20:44:07.043Z,46.40
2023-04-08T20:46:35.124Z,46.50
2023-04-08T20:49:03.570Z,46.70
2023-04-08T20:51:31.124Z,46.70
2023-04-08T20:53:58.280Z,46.80
2023-04-08T20:56:26.419Z,46.90
2023-04-08T20:58:53.688Z,46.80
2023-04-08T21:01:21.546Z,46.70
2023-04-08T21:03:48.971Z,47.00
2023-04-08T21:06:17.397Z,47.10
2023-04-08T21:08:44.342Z,47.10
2023-04-08T21:11:11.514Z,47.00
2023-04-08T21:13:38.454Z,47.10
2023-04-08T21:16:05.980Z,47.10
2023-04-08T21:18:33.141Z,47.00
2023-04-08T21:20:59.977Z,46.90
2023-04-08T21:23:27.433Z,46.60
2023-04-08T21:25:54.297Z,46.90
2023-04-08T21:28:20.983Z,46.70
2023-04-08T21:30:47.777Z,46.80
2023-04-08T21:33:15.450Z,47.00
2023-04-08T21:35:42.172Z,47.30
2023-04-08T21:38:08.913Z,47.20
2023-04-08T21:40:35.775Z,47.40
2023-04-08T21:43:02.560Z,47.50
2023-04-08T21:45:29.994Z,47.60
2023-04-08T21:47:56.771Z,47.50
2023-04-08T21:50:23.567Z,47.60
2023-04-08T21:52:50.338Z,47.60
2023-04-08T21:55:17.283Z,47.70
2023-04-08T21:57:44.031Z,47.90
2023-04-08T22:00:13.555Z,48.00
2023-04-08T22:02:43.841Z,48.30
2023-04-08T22:05:11.605Z,48.10
2023-04-08T22:07:38.505Z,48.50
2023-04-08T22:10:05.944Z,48.70
2023-04-08T22:12:34.484Z,48.90
2023-04-08T22:15:01.396Z,48.90
2023-04-08T22:17:28.173Z,49.10
2023-04-08T22:19:54.988Z,48.90
2023-04-08T22:22:21.764Z,48.70
2023-04-08T22:24:48.447Z,49.10
2023-04-08T22:27:15.417Z,48.60
2023-04-08T22:29:42.227Z,48.60
2023-04-08T22:32:08.915Z,48.90
2023-04-08T22:34:36.229Z,48.80
2023-04-08T22:37:02.947Z,49.00
2023-04-08T22:39:29.764Z,48.70
2023-04-08T22:41:57.469Z,48.60
2023-04-08T22:44:24.220Z,48.70
2023-04-08T22:46:51.586Z,48.70
2023-04-08T22:49:18.386Z,48.80
2023-04-08T22:51:45.171Z,48.60
2023-04-08T22:54:11.952Z,48.60
2023-04-08T22:56:38.677Z,48.60
2023-04-08T22:59:05.622Z,48.60
2023-04-08T23:01:32.693Z,48.80
2023-04-08T23:03:59.672Z,48.60
2023-04-08T23:06:27.828Z,49.00
2023-04-08T23:08:54.514Z,49.00
2023-04-08T23:11:21.296Z,48.90
2023-04-08T23:13:48.009Z,48.90
2023-04-08T23:16:14.900Z,48.40
2023-04-08T23:18:41.654Z,48.30
2023-04-08T23:21:08.447Z,48.30
2023-04-08T23:23:35.260Z,47.80
2023-04-08T23:26:02.009Z,47.80
2023-04-08T23:28:28.728Z,47.60
2023-04-08T23:30:55.531Z,47.70
2023-04-08T23:33:22.342Z,48.00
2023-04-08T23:35:49.213Z,48.30
2023-04-08T23:38:16.044Z,48.60
2023-04-08T23:40:42.877Z,48.10
2023-04-08T23:43:09.648Z,48.20
2023-04-08T23:45:36.344Z,48.10
2023-04-08T23:48:03.163Z,48.00
2023-04-08T23:50:29.942Z,47.80
2023-04-08T23:52:56.632Z,47.70
2023-04-08T23:55:23.369Z,47.60
2023-04-08T23:57:50.860Z,48.00
